Terminal Aerodrome Forecast
Issued by NWS

Home | Current Version | Previous Version | Text Only | Print | Product List | Glossary On
Versions: 1 2 3 4 5 6 7 8 9 10 11 12 13 14 15 16 17 18 19 20 21 22 23 24 25 26
838
FTUS46 KMTR 231226 AAA
TAFSFO
TAF AMD
KSFO 231226Z 2312/2418 27007KT P6SM FEW007
      TEMPO 2312/2316 BKN006
     FM231730 34006KT P6SM SKC
     FM232000 30013KT P6SM SKC
     FM232300 29016KT P6SM FEW009
     FM240400 29010KT P6SM FEW008
     FM241000 28007KT P6SM BKN007
     FM241700 27006KT P6SM FEW008=

USA.gov is the U.S. government's official web portal to all federal, state and local government web resources and services.